sensor_id;sensor_type;location;lat;lon;timestamp;P1;durP1;ratioP1;P2;durP2;ratioP2
12760;SDS011;6444;49.742;6.114;2022-08-05T00:01:48;26.08;;;18.67;;
12760;SDS011;6444;49.742;6.114;2022-08-05T00:04:17;21.65;;;17.60;;
12760;SDS011;6444;49.742;6.114;2022-08-05T00:06:41;24.77;;;18.08;;
12760;SDS011;6444;49.742;6.114;2022-08-05T00:09:08;25.83;;;18.27;;
12760;SDS011;6444;49.742;6.114;2022-08-05T00:11:35;22.65;;;18.67;;
12760;SDS011;6444;49.742;6.114;2022-08-05T00:14:01;26.75;;;19.27;;
12760;SDS011;6444;49.742;6.114;2022-08-05T00:16:28;27.08;;;18.87;;
12760;SDS011;6444;49.742;6.114;2022-08-05T00:18:55;27.83;;;19.73;;
12760;SDS011;6444;49.742;6.114;2022-08-05T00:21:22;31.52;;;23.23;;
12760;SDS011;6444;49.742;6.114;2022-08-05T00:23:49;27.77;;;19.65;;
12760;SDS011;6444;49.742;6.114;2022-08-05T00:26:15;29.10;;;22.47;;
12760;SDS011;6444;49.742;6.114;2022-08-05T00:28:42;28.12;;;19.48;;
12760;SDS011;6444;49.742;6.114;2022-08-05T00:31:08;28.92;;;19.90;;
12760;SDS011;6444;49.742;6.114;2022-08-05T00:33:36;29.37;;;21.40;;
12760;SDS011;6444;49.742;6.114;2022-08-05T00:36:03;26.87;;;20.52;;
12760;SDS011;6444;49.742;6.114;2022-08-05T00:38:29;29.73;;;20.20;;
12760;SDS011;6444;49.742;6.114;2022-08-05T00:40:56;30.30;;;21.67;;
12760;SDS011;6444;49.742;6.114;2022-08-05T00:43:22;22.95;;;18.50;;
12760;SDS011;6444;49.742;6.114;2022-08-05T00:45:49;29.80;;;19.58;;
12760;SDS011;6444;49.742;6.114;2022-08-05T00:48:16;27.15;;;18.87;;
12760;SDS011;6444;49.742;6.114;2022-08-05T00:50:43;29.33;;;20.48;;
12760;SDS011;6444;49.742;6.114;2022-08-05T00:53:09;30.30;;;20.10;;
12760;SDS011;6444;49.742;6.114;2022-08-05T00:55:36;32.13;;;25.37;;
12760;SDS011;6444;49.742;6.114;2022-08-05T00:58:03;27.37;;;21.37;;
12760;SDS011;6444;49.742;6.114;2022-08-05T01:00:34;27.65;;;19.98;;
12760;SDS011;6444;49.742;6.114;2022-08-05T01:03:00;26.15;;;20.62;;
12760;SDS011;6444;49.742;6.114;2022-08-05T01:05:27;34.53;;;22.67;;
12760;SDS011;6444;49.742;6.114;2022-08-05T01:07:54;29.90;;;22.87;;
12760;SDS011;6444;49.742;6.114;2022-08-05T01:10:21;31.20;;;23.02;;
12760;SDS011;6444;49.742;6.114;2022-08-05T01:12:47;31.50;;;22.58;;
12760;SDS011;6444;49.742;6.114;2022-08-05T01:15:17;30.52;;;22.25;;
12760;SDS011;6444;49.742;6.114;2022-08-05T01:17:44;31.42;;;22.75;;
12760;SDS011;6444;49.742;6.114;2022-08-05T01:20:18;34.43;;;27.43;;
12760;SDS011;6444;49.742;6.114;2022-08-05T01:23:00;42.62;;;24.02;;
12760;SDS011;6444;49.742;6.114;2022-08-05T01:25:28;42.20;;;25.85;;
12760;SDS011;6444;49.742;6.114;2022-08-05T01:28:13;38.35;;;28.50;;
12760;SDS011;6444;49.742;6.114;2022-08-05T01:30:40;37.90;;;28.35;;
12760;SDS011;6444;49.742;6.114;2022-08-05T01:33:06;40.47;;;25.73;;
12760;SDS011;6444;49.742;6.114;2022-08-05T01:35:33;34.97;;;24.27;;
12760;SDS011;6444;49.742;6.114;2022-08-05T01:37:59;38.75;;;27.77;;
12760;SDS011;6444;49.742;6.114;2022-08-05T01:40:27;40.75;;;26.52;;
12760;SDS011;6444;49.742;6.114;2022-08-05T01:42:52;41.72;;;28.62;;
12760;SDS011;6444;49.742;6.114;2022-08-05T01:45:19;37.95;;;27.33;;
12760;SDS011;6444;49.742;6.114;2022-08-05T01:47:47;43.50;;;29.60;;
12760;SDS011;6444;49.742;6.114;2022-08-05T01:50:29;41.28;;;27.98;;
12760;SDS011;6444;49.742;6.114;2022-08-05T01:52:55;47.85;;;31.27;;
12760;SDS011;6444;49.742;6.114;2022-08-05T01:55:21;69.53;;;47.73;;
12760;SDS011;6444;49.742;6.114;2022-08-05T01:57:48;55.42;;;35.83;;
12760;SDS011;6444;49.742;6.114;2022-08-05T02:00:14;52.88;;;35.35;;
12760;SDS011;6444;49.742;6.114;2022-08-05T02:02:47;53.30;;;36.10;;
12760;SDS011;6444;49.742;6.114;2022-08-05T02:05:12;59.70;;;38.17;;
12760;SDS011;6444;49.742;6.114;2022-08-05T02:07:38;52.67;;;34.72;;
12760;SDS011;6444;49.742;6.114;2022-08-05T02:10:05;57.50;;;34.58;;
12760;SDS011;6444;49.742;6.114;2022-08-05T02:12:42;55.15;;;35.83;;
12760;SDS011;6444;49.742;6.114;2022-08-05T02:15:16;60.95;;;38.28;;
12760;SDS011;6444;49.742;6.114;2022-08-05T02:18:06;72.53;;;51.92;;
12760;SDS011;6444;49.742;6.114;2022-08-05T02:20:56;65.07;;;42.45;;
12760;SDS011;6444;49.742;6.114;2022-08-05T02:23:21;59.92;;;40.00;;
12760;SDS011;6444;49.742;6.114;2022-08-05T02:25:46;64.37;;;38.60;;
12760;SDS011;6444;49.742;6.114;2022-08-05T02:28:13;53.03;;;35.53;;
12760;SDS011;6444;49.742;6.114;2022-08-05T02:30:48;56.95;;;35.47;;
12760;SDS011;6444;49.742;6.114;2022-08-05T02:33:14;53.90;;;34.80;;
12760;SDS011;6444;49.742;6.114;2022-08-05T02:35:39;55.95;;;36.38;;
12760;SDS011;6444;49.742;6.114;2022-08-05T02:38:05;52.72;;;34.95;;
12760;SDS011;6444;49.742;6.114;2022-08-05T02:40:32;52.62;;;35.90;;
12760;SDS011;6444;49.742;6.114;2022-08-05T02:42:59;59.37;;;41.60;;
12760;SDS011;6444;49.742;6.114;2022-08-05T02:45:25;50.63;;;32.95;;
12760;SDS011;6444;49.742;6.114;2022-08-05T02:47:52;55.15;;;33.95;;
12760;SDS011;6444;49.742;6.114;2022-08-05T02:50:19;56.97;;;35.67;;
12760;SDS011;6444;49.742;6.114;2022-08-05T02:52:45;49.83;;;31.30;;
12760;SDS011;6444;49.742;6.114;2022-08-05T02:55:13;38.67;;;27.23;;
12760;SDS011;6444;49.742;6.114;2022-08-05T02:57:40;45.95;;;28.17;;
12760;SDS011;6444;49.742;6.114;2022-08-05T03:00:07;44.20;;;26.85;;
12760;SDS011;6444;49.742;6.114;2022-08-05T03:02:36;42.08;;;24.83;;
12760;SDS011;6444;49.742;6.114;2022-08-05T03:05:00;37.92;;;23.50;;
12760;SDS011;6444;49.742;6.114;2022-08-05T03:07:27;36.70;;;22.40;;
12760;SDS011;6444;49.742;6.114;2022-08-05T03:09:53;33.05;;;22.45;;
12760;SDS011;6444;49.742;6.114;2022-08-05T03:12:33;42.62;;;24.23;;
12760;SDS011;6444;49.742;6.114;2022-08-05T03:15:05;35.33;;;22.65;;
12760;SDS011;6444;49.742;6.114;2022-08-05T03:17:29;35.35;;;22.90;;
12760;SDS011;6444;49.742;6.114;2022-08-05T03:19:56;37.78;;;24.15;;
12760;SDS011;6444;49.742;6.114;2022-08-05T03:22:22;39.10;;;25.12;;
12760;SDS011;6444;49.742;6.114;2022-08-05T03:24:49;38.78;;;24.87;;
12760;SDS011;6444;49.742;6.114;2022-08-05T03:27:16;40.38;;;25.48;;
12760;SDS011;6444;49.742;6.114;2022-08-05T03:29:42;41.67;;;26.02;;
12760;SDS011;6444;49.742;6.114;2022-08-05T03:32:09;37.72;;;25.65;;
12760;SDS011;6444;49.742;6.114;2022-08-05T03:34:37;39.80;;;25.37;;
12760;SDS011;6444;49.742;6.114;2022-08-05T03:37:03;43.22;;;25.75;;
12760;SDS011;6444;49.742;6.114;2022-08-05T03:39:30;38.63;;;21.90;;
12760;SDS011;6444;49.742;6.114;2022-08-05T03:41:57;41.92;;;24.08;;
12760;SDS011;6444;49.742;6.114;2022-08-05T03:44:24;44.63;;;26.42;;
12760;SDS011;6444;49.742;6.114;2022-08-05T03:46:50;45.60;;;28.10;;
12760;SDS011;6444;49.742;6.114;2022-08-05T03:49:17;54.67;;;30.17;;
12760;SDS011;6444;49.742;6.114;2022-08-05T03:51:47;45.33;;;30.02;;
12760;SDS011;6444;49.742;6.114;2022-08-05T03:56:38;49.30;;;31.12;;
12760;SDS011;6444;49.742;6.114;2022-08-05T03:59:15;53.33;;;33.33;;
12760;SDS011;6444;49.742;6.114;2022-08-05T04:01:41;50.50;;;32.88;;
12760;SDS011;6444;49.742;6.114;2022-08-05T04:04:06;56.15;;;33.03;;
12760;SDS011;6444;49.742;6.114;2022-08-05T04:06:33;53.15;;;30.92;;
12760;SDS011;6444;49.742;6.114;2022-08-05T04:09:00;46.92;;;29.92;;
12760;SDS011;6444;49.742;6.114;2022-08-05T04:11:27;52.50;;;31.48;;
12760;SDS011;6444;49.742;6.114;2022-08-05T04:13:54;49.85;;;30.75;;
12760;SDS011;6444;49.742;6.114;2022-08-05T04:16:20;51.22;;;30.20;;
12760;SDS011;6444;49.742;6.114;2022-08-05T04:18:47;39.33;;;23.60;;
12760;SDS011;6444;49.742;6.114;2022-08-05T04:21:14;39.63;;;25.95;;
12760;SDS011;6444;49.742;6.114;2022-08-05T04:23:40;46.67;;;30.15;;
12760;SDS011;6444;49.742;6.114;2022-08-05T04:26:07;51.72;;;30.62;;
12760;SDS011;6444;49.742;6.114;2022-08-05T04:28:33;54.67;;;33.17;;
12760;SDS011;6444;49.742;6.114;2022-08-05T04:31:01;53.85;;;33.15;;
12760;SDS011;6444;49.742;6.114;2022-08-05T04:33:28;51.17;;;31.55;;
12760;SDS011;6444;49.742;6.114;2022-08-05T04:35:54;50.38;;;29.35;;
12760;SDS011;6444;49.742;6.114;2022-08-05T04:38:21;45.28;;;28.23;;
12760;SDS011;6444;49.742;6.114;2022-08-05T04:40:47;50.67;;;30.73;;
12760;SDS011;6444;49.742;6.114;2022-08-05T04:43:14;46.05;;;28.50;;
12760;SDS011;6444;49.742;6.114;2022-08-05T04:45:41;38.97;;;25.73;;
12760;SDS011;6444;49.742;6.114;2022-08-05T04:48:11;36.03;;;23.12;;
12760;SDS011;6444;49.742;6.114;2022-08-05T04:50:44;28.52;;;19.77;;
12760;SDS011;6444;49.742;6.114;2022-08-05T04:53:08;26.50;;;20.02;;
12760;SDS011;6444;49.742;6.114;2022-08-05T04:55:36;25.33;;;17.80;;
12760;SDS011;6444;49.742;6.114;2022-08-05T04:58:03;31.23;;;24.17;;
12760;SDS011;6444;49.742;6.114;2022-08-05T05:00:32;31.05;;;21.52;;
12760;SDS011;6444;49.742;6.114;2022-08-05T05:02:59;30.92;;;21.33;;
12760;SDS011;6444;49.742;6.114;2022-08-05T05:05:25;32.40;;;22.92;;
12760;SDS011;6444;49.742;6.114;2022-08-05T05:07:53;36.55;;;22.83;;
12760;SDS011;6444;49.742;6.114;2022-08-05T05:10:19;38.87;;;28.10;;
12760;SDS011;6444;49.742;6.114;2022-08-05T05:12:45;33.92;;;23.65;;
12760;SDS011;6444;49.742;6.114;2022-08-05T05:15:12;34.60;;;23.33;;
12760;SDS011;6444;49.742;6.114;2022-08-05T05:17:39;35.70;;;23.17;;
12760;SDS011;6444;49.742;6.114;2022-08-05T05:20:06;32.25;;;23.83;;
12760;SDS011;6444;49.742;6.114;2022-08-05T05:22:33;33.85;;;21.70;;
12760;SDS011;6444;49.742;6.114;2022-08-05T05:24:59;35.93;;;28.20;;
12760;SDS011;6444;49.742;6.114;2022-08-05T05:27:27;31.85;;;24.37;;
12760;SDS011;6444;49.742;6.114;2022-08-05T05:29:53;29.75;;;21.30;;
12760;SDS011;6444;49.742;6.114;2022-08-05T05:32:19;27.10;;;17.90;;
12760;SDS011;6444;49.742;6.114;2022-08-05T05:34:46;20.27;;;16.08;;
12760;SDS011;6444;49.742;6.114;2022-08-05T05:37:13;19.30;;;15.32;;
12760;SDS011;6444;49.742;6.114;2022-08-05T05:39:39;19.52;;;16.20;;
12760;SDS011;6444;49.742;6.114;2022-08-05T05:42:06;21.02;;;15.10;;
12760;SDS011;6444;49.742;6.114;2022-08-05T05:44:32;20.83;;;15.82;;
12760;SDS011;6444;49.742;6.114;2022-08-05T05:47:00;23.45;;;16.10;;
12760;SDS011;6444;49.742;6.114;2022-08-05T05:49:26;21.37;;;15.27;;
12760;SDS011;6444;49.742;6.114;2022-08-05T05:51:53;23.92;;;16.05;;
12760;SDS011;6444;49.742;6.114;2022-08-05T05:54:20;21.70;;;15.65;;
12760;SDS011;6444;49.742;6.114;2022-08-05T05:56:46;19.15;;;15.13;;
12760;SDS011;6444;49.742;6.114;2022-08-05T05:59:13;22.10;;;16.00;;
12760;SDS011;6444;49.742;6.114;2022-08-05T06:01:40;21.67;;;15.23;;
12760;SDS011;6444;49.742;6.114;2022-08-05T06:04:07;24.27;;;15.65;;
12760;SDS011;6444;49.742;6.114;2022-08-05T06:06:36;22.05;;;16.20;;
12760;SDS011;6444;49.742;6.114;2022-08-05T06:09:03;18.50;;;15.37;;
12760;SDS011;6444;49.742;6.114;2022-08-05T06:11:29;15.20;;;13.60;;
12760;SDS011;6444;49.742;6.114;2022-08-05T06:13:55;14.43;;;12.75;;
12760;SDS011;6444;49.742;6.114;2022-08-05T06:16:22;16.15;;;11.35;;
12760;SDS011;6444;49.742;6.114;2022-08-05T06:18:49;12.35;;;11.05;;
12760;SDS011;6444;49.742;6.114;2022-08-05T06:21:16;12.85;;;10.88;;
12760;SDS011;6444;49.742;6.114;2022-08-05T06:23:42;15.13;;;13.63;;
12760;SDS011;6444;49.742;6.114;2022-08-05T06:28:44;13.05;;;10.75;;
12760;SDS011;6444;49.742;6.114;2022-08-05T06:31:10;11.25;;;9.95;;
12760;SDS011;6444;49.742;6.114;2022-08-05T06:33:37;9.90;;;8.90;;
12760;SDS011;6444;49.742;6.114;2022-08-05T06:36:04;14.07;;;8.57;;
12760;SDS011;6444;49.742;6.114;2022-08-05T06:38:30;9.07;;;8.18;;
12760;SDS011;6444;49.742;6.114;2022-08-05T06:40:57;11.45;;;8.25;;
12760;SDS011;6444;49.742;6.114;2022-08-05T06:43:23;9.40;;;8.00;;
12760;SDS011;6444;49.742;6.114;2022-08-05T06:45:50;9.80;;;8.15;;
12760;SDS011;6444;49.742;6.114;2022-08-05T06:48:17;9.02;;;7.85;;
12760;SDS011;6444;49.742;6.114;2022-08-05T06:50:43;9.75;;;7.60;;
12760;SDS011;6444;49.742;6.114;2022-08-05T06:53:10;8.85;;;6.68;;
12760;SDS011;6444;49.742;6.114;2022-08-05T06:55:37;8.10;;;6.40;;
12760;SDS011;6444;49.742;6.114;2022-08-05T06:58:04;10.82;;;7.30;;
12760;SDS011;6444;49.742;6.114;2022-08-05T07:00:31;7.05;;;6.32;;
12760;SDS011;6444;49.742;6.114;2022-08-05T07:02:57;8.00;;;7.18;;
12760;SDS011;6444;49.742;6.114;2022-08-05T07:05:25;8.68;;;6.50;;
12760;SDS011;6444;49.742;6.114;2022-08-05T07:07:52;10.50;;;7.78;;
12760;SDS011;6444;49.742;6.114;2022-08-05T07:10:19;11.40;;;8.90;;
12760;SDS011;6444;49.742;6.114;2022-08-05T07:12:46;9.63;;;8.55;;
12760;SDS011;6444;49.742;6.114;2022-08-05T07:15:30;8.98;;;8.07;;
12760;SDS011;6444;49.742;6.114;2022-08-05T07:18:15;10.80;;;8.38;;
12760;SDS011;6444;49.742;6.114;2022-08-05T07:20:42;9.50;;;8.60;;
12760;SDS011;6444;49.742;6.114;2022-08-05T07:23:08;8.88;;;7.57;;
12760;SDS011;6444;49.742;6.114;2022-08-05T07:25:35;8.53;;;7.73;;
12760;SDS011;6444;49.742;6.114;2022-08-05T07:28:02;9.20;;;8.30;;
12760;SDS011;6444;49.742;6.114;2022-08-05T07:30:29;9.93;;;8.30;;
12760;SDS011;6444;49.742;6.114;2022-08-05T07:32:56;9.95;;;8.85;;
12760;SDS011;6444;49.742;6.114;2022-08-05T07:35:22;8.82;;;7.93;;
12760;SDS011;6444;49.742;6.114;2022-08-05T07:37:49;7.57;;;6.87;;
12760;SDS011;6444;49.742;6.114;2022-08-05T07:40:16;7.90;;;6.20;;
12760;SDS011;6444;49.742;6.114;2022-08-05T07:42:42;7.78;;;7.07;;
12760;SDS011;6444;49.742;6.114;2022-08-05T07:45:09;6.82;;;6.18;;
12760;SDS011;6444;49.742;6.114;2022-08-05T07:47:36;8.73;;;5.62;;
12760;SDS011;6444;49.742;6.114;2022-08-05T07:50:03;6.75;;;5.30;;
12760;SDS011;6444;49.742;6.114;2022-08-05T07:52:29;5.70;;;5.20;;
12760;SDS011;6444;49.742;6.114;2022-08-05T07:54:56;6.20;;;5.60;;
12760;SDS011;6444;49.742;6.114;2022-08-05T07:57:23;7.45;;;6.00;;
12760;SDS011;6444;49.742;6.114;2022-08-05T07:59:49;7.07;;;6.47;;
12760;SDS011;6444;49.742;6.114;2022-08-05T08:02:16;6.60;;;5.68;;
12760;SDS011;6444;49.742;6.114;2022-08-05T08:04:46;7.55;;;6.03;;
12760;SDS011;6444;49.742;6.114;2022-08-05T08:07:09;7.12;;;5.80;;
12760;SDS011;6444;49.742;6.114;2022-08-05T08:09:36;6.10;;;5.45;;
12760;SDS011;6444;49.742;6.114;2022-08-05T08:12:03;6.85;;;6.20;;
12760;SDS011;6444;49.742;6.114;2022-08-05T08:14:30;7.70;;;6.03;;
12760;SDS011;6444;49.742;6.114;2022-08-05T08:16:56;6.75;;;6.10;;
12760;SDS011;6444;49.742;6.114;2022-08-05T08:19:23;6.70;;;5.85;;
12760;SDS011;6444;49.742;6.114;2022-08-05T08:21:50;7.47;;;5.62;;
12760;SDS011;6444;49.742;6.114;2022-08-05T08:24:16;6.25;;;5.70;;
12760;SDS011;6444;49.742;6.114;2022-08-05T08:26:43;6.53;;;5.93;;
12760;SDS011;6444;49.742;6.114;2022-08-05T08:29:10;6.28;;;5.68;;
12760;SDS011;6444;49.742;6.114;2022-08-05T08:31:36;9.07;;;6.32;;
12760;SDS011;6444;49.742;6.114;2022-08-05T08:34:03;7.03;;;6.43;;
12760;SDS011;6444;49.742;6.114;2022-08-05T08:36:29;6.85;;;6.15;;
12760;SDS011;6444;49.742;6.114;2022-08-05T08:38:56;6.10;;;5.10;;
12760;SDS011;6444;49.742;6.114;2022-08-05T08:41:24;7.20;;;4.93;;
12760;SDS011;6444;49.742;6.114;2022-08-05T08:43:49;5.75;;;4.35;;
12760;SDS011;6444;49.742;6.114;2022-08-05T08:46:17;4.65;;;4.25;;
12760;SDS011;6444;49.742;6.114;2022-08-05T08:48:43;4.00;;;3.58;;
12760;SDS011;6444;49.742;6.114;2022-08-05T08:51:10;5.07;;;4.15;;
12760;SDS011;6444;49.742;6.114;2022-08-05T08:53:37;4.65;;;4.03;;
12760;SDS011;6444;49.742;6.114;2022-08-05T08:56:03;4.28;;;3.87;;
12760;SDS011;6444;49.742;6.114;2022-08-05T08:58:30;4.00;;;3.65;;
12760;SDS011;6444;49.742;6.114;2022-08-05T09:00:57;3.80;;;3.28;;
12760;SDS011;6444;49.742;6.114;2022-08-05T09:03:23;3.60;;;3.22;;
12760;SDS011;6444;49.742;6.114;2022-08-05T09:05:50;3.60;;;3.30;;
12760;SDS011;6444;49.742;6.114;2022-08-05T09:08:16;5.30;;;3.37;;
12760;SDS011;6444;49.742;6.114;2022-08-05T09:10:43;4.55;;;3.30;;
12760;SDS011;6444;49.742;6.114;2022-08-05T09:13:13;3.60;;;3.00;;
12760;SDS011;6444;49.742;6.114;2022-08-05T09:15:39;4.12;;;2.90;;
12760;SDS011;6444;49.742;6.114;2022-08-05T09:18:09;4.43;;;3.58;;
12760;SDS011;6444;49.742;6.114;2022-08-05T09:20:32;3.40;;;3.10;;
12760;SDS011;6444;49.742;6.114;2022-08-05T09:23:12;4.15;;;3.72;;
12760;SDS011;6444;49.742;6.114;2022-08-05T09:25:41;4.10;;;3.80;;
12760;SDS011;6444;49.742;6.114;2022-08-05T09:28:17;4.43;;;3.40;;
12760;SDS011;6444;49.742;6.114;2022-08-05T09:30:34;4.00;;;3.53;;
12760;SDS011;6444;49.742;6.114;2022-08-05T09:33:01;4.60;;;3.22;;
12760;SDS011;6444;49.742;6.114;2022-08-05T09:35:27;3.97;;;3.47;;
12760;SDS011;6444;49.742;6.114;2022-08-05T09:37:55;4.32;;;2.92;;
12760;SDS011;6444;49.742;6.114;2022-08-05T09:40:34;3.53;;;3.10;;
12760;SDS011;6444;49.742;6.114;2022-08-05T09:43:02;7.32;;;2.90;;
12760;SDS011;6444;49.742;6.114;2022-08-05T09:45:34;2.90;;;2.60;;
12760;SDS011;6444;49.742;6.114;2022-08-05T09:50:48;2.90;;;2.58;;
12760;SDS011;6444;49.742;6.114;2022-08-05T09:53:15;3.12;;;2.50;;
12760;SDS011;6444;49.742;6.114;2022-08-05T09:55:41;4.40;;;2.65;;
12760;SDS011;6444;49.742;6.114;2022-08-05T09:58:14;3.65;;;2.53;;
12760;SDS011;6444;49.742;6.114;2022-08-05T10:00:50;2.70;;;2.50;;
12760;SDS011;6444;49.742;6.114;2022-08-05T10:03:22;3.45;;;2.60;;
12760;SDS011;6444;49.742;6.114;2022-08-05T10:06:02;3.75;;;3.03;;
12760;SDS011;6444;49.742;6.114;2022-08-05T10:08:28;4.20;;;2.90;;
12760;SDS011;6444;49.742;6.114;2022-08-05T10:10:55;2.97;;;2.40;;
12760;SDS011;6444;49.742;6.114;2022-08-05T10:13:31;2.90;;;2.28;;
12760;SDS011;6444;49.742;6.114;2022-08-05T10:15:54;2.87;;;2.58;;
12760;SDS011;6444;49.742;6.114;2022-08-05T10:18:21;3.08;;;2.75;;
12760;SDS011;6444;49.742;6.114;2022-08-05T10:20:49;3.78;;;3.35;;
12760;SDS011;6444;49.742;6.114;2022-08-05T10:23:15;3.12;;;2.83;;
12760;SDS011;6444;49.742;6.114;2022-08-05T10:25:41;3.33;;;2.55;;
12760;SDS011;6444;49.742;6.114;2022-08-05T10:28:07;3.10;;;2.60;;
12760;SDS011;6444;49.742;6.114;2022-08-05T10:30:35;2.80;;;2.60;;
12760;SDS011;6444;49.742;6.114;2022-08-05T10:33:01;2.90;;;2.70;;
12760;SDS011;6444;49.742;6.114;2022-08-05T10:35:29;3.25;;;2.83;;
12760;SDS011;6444;49.742;6.114;2022-08-05T10:37:55;2.72;;;2.45;;
12760;SDS011;6444;49.742;6.114;2022-08-05T10:40:27;5.00;;;2.33;;
12760;SDS011;6444;49.742;6.114;2022-08-05T10:45:53;2.47;;;2.28;;
12760;SDS011;6444;49.742;6.114;2022-08-05T10:51:06;2.25;;;2.00;;
12760;SDS011;6444;49.742;6.114;2022-08-05T10:53:35;2.35;;;2.15;;
12760;SDS011;6444;49.742;6.114;2022-08-05T11:01:16;2.55;;;2.35;;
12760;SDS011;6444;49.742;6.114;2022-08-05T11:06:31;2.92;;;2.62;;
12760;SDS011;6444;49.742;6.114;2022-08-05T11:09:10;3.58;;;2.50;;
12760;SDS011;6444;49.742;6.114;2022-08-05T11:11:36;2.28;;;2.08;;
12760;SDS011;6444;49.742;6.114;2022-08-05T11:14:03;2.97;;;2.67;;
12760;SDS011;6444;49.742;6.114;2022-08-05T11:16:29;2.53;;;2.33;;
12760;SDS011;6444;49.742;6.114;2022-08-05T11:21:50;3.03;;;2.62;;
12760;SDS011;6444;49.742;6.114;2022-08-05T11:24:16;2.60;;;2.40;;
12760;SDS011;6444;49.742;6.114;2022-08-05T11:26:43;2.58;;;2.30;;
12760;SDS011;6444;49.742;6.114;2022-08-05T11:29:32;3.30;;;2.15;;
12760;SDS011;6444;49.742;6.114;2022-08-05T11:31:36;3.55;;;2.53;;
12760;SDS011;6444;49.742;6.114;2022-08-05T11:34:06;3.72;;;2.60;;
12760;SDS011;6444;49.742;6.114;2022-08-05T11:36:48;2.53;;;2.30;;
12760;SDS011;6444;49.742;6.114;2022-08-05T11:39:15;2.60;;;2.40;;
12760;SDS011;6444;49.742;6.114;2022-08-05T11:41:41;2.40;;;2.20;;
12760;SDS011;6444;49.742;6.114;2022-08-05T11:44:10;2.10;;;1.92;;
12760;SDS011;6444;49.742;6.114;2022-08-05T11:46:52;2.50;;;2.30;;
12760;SDS011;6444;49.742;6.114;2022-08-05T11:49:21;3.35;;;2.35;;
12760;SDS011;6444;49.742;6.114;2022-08-05T11:51:48;4.18;;;2.12;;
12760;SDS011;6444;49.742;6.114;2022-08-05T11:54:25;2.45;;;2.20;;
12760;SDS011;6444;49.742;6.114;2022-08-05T11:56:51;2.20;;;2.00;;
12760;SDS011;6444;49.742;6.114;2022-08-05T11:59:21;4.65;;;1.90;;
12760;SDS011;6444;49.742;6.114;2022-08-05T12:02:05;1.98;;;1.83;;
12760;SDS011;6444;49.742;6.114;2022-08-05T12:07:07;2.58;;;2.10;;
12760;SDS011;6444;49.742;6.114;2022-08-05T12:09:41;2.30;;;2.10;;
12760;SDS011;6444;49.742;6.114;2022-08-05T12:12:05;2.47;;;2.28;;
12760;SDS011;6444;49.742;6.114;2022-08-05T12:14:37;2.80;;;2.45;;
12760;SDS011;6444;49.742;6.114;2022-08-05T12:17:07;3.42;;;2.62;;
12760;SDS011;6444;49.742;6.114;2022-08-05T12:22:08;2.95;;;2.20;;
12760;SDS011;6444;49.742;6.114;2022-08-05T12:24:38;3.97;;;2.67;;
12760;SDS011;6444;49.742;6.114;2022-08-05T12:27:02;2.40;;;2.20;;
12760;SDS011;6444;49.742;6.114;2022-08-05T12:29:29;2.58;;;2.37;;
12760;SDS011;6444;49.742;6.114;2022-08-05T12:31:56;2.50;;;2.30;;
12760;SDS011;6444;49.742;6.114;2022-08-05T12:34:23;2.85;;;2.12;;
12760;SDS011;6444;49.742;6.114;2022-08-05T12:37:01;2.75;;;2.47;;
12760;SDS011;6444;49.742;6.114;2022-08-05T12:39:24;3.15;;;2.40;;
12760;SDS011;6444;49.742;6.114;2022-08-05T12:41:55;3.25;;;2.17;;
12760;SDS011;6444;49.742;6.114;2022-08-05T12:44:17;3.50;;;2.12;;
12760;SDS011;6444;49.742;6.114;2022-08-05T12:46:50;3.05;;;2.10;;
12760;SDS011;6444;49.742;6.114;2022-08-05T12:49:11;1.98;;;1.87;;
12760;SDS011;6444;49.742;6.114;2022-08-05T12:51:44;2.05;;;1.85;;
12760;SDS011;6444;49.742;6.114;2022-08-05T12:54:10;3.47;;;2.50;;
12760;SDS011;6444;49.742;6.114;2022-08-05T12:56:40;2.92;;;2.00;;
12760;SDS011;6444;49.742;6.114;2022-08-05T12:59:12;2.40;;;2.20;;
12760;SDS011;6444;49.742;6.114;2022-08-05T13:01:35;2.22;;;2.03;;
12760;SDS011;6444;49.742;6.114;2022-08-05T13:04:03;2.80;;;2.60;;
12760;SDS011;6444;49.742;6.114;2022-08-05T13:06:29;3.12;;;2.47;;
12760;SDS011;6444;49.742;6.114;2022-08-05T13:08:56;3.25;;;2.40;;
12760;SDS011;6444;49.742;6.114;2022-08-05T13:11:28;2.60;;;2.22;;
12760;SDS011;6444;49.742;6.114;2022-08-05T13:13:49;3.47;;;2.20;;
12760;SDS011;6444;49.742;6.114;2022-08-05T13:16:17;2.47;;;2.28;;
12760;SDS011;6444;49.742;6.114;2022-08-05T13:18:50;2.33;;;2.10;;
12760;SDS011;6444;49.742;6.114;2022-08-05T13:21:16;2.80;;;2.60;;
12760;SDS011;6444;49.742;6.114;2022-08-05T13:23:43;2.40;;;2.20;;
12760;SDS011;6444;49.742;6.114;2022-08-05T13:26:09;2.67;;;2.20;;
12760;SDS011;6444;49.742;6.114;2022-08-05T13:28:36;2.22;;;1.95;;
12760;SDS011;6444;49.742;6.114;2022-08-05T13:31:03;2.25;;;2.12;;
12760;SDS011;6444;49.742;6.114;2022-08-05T13:33:30;3.97;;;2.40;;
12760;SDS011;6444;49.742;6.114;2022-08-05T13:35:57;2.55;;;2.20;;
12760;SDS011;6444;49.742;6.114;2022-08-05T13:38:23;2.85;;;2.00;;
12760;SDS011;6444;49.742;6.114;2022-08-05T13:40:50;4.85;;;2.30;;
12760;SDS011;6444;49.742;6.114;2022-08-05T13:43:17;2.67;;;2.15;;
12760;SDS011;6444;49.742;6.114;2022-08-05T13:45:44;3.45;;;2.05;;
12760;SDS011;6444;49.742;6.114;2022-08-05T13:48:11;2.95;;;2.00;;
12760;SDS011;6444;49.742;6.114;2022-08-05T13:50:37;3.40;;;2.10;;
12760;SDS011;6444;49.742;6.114;2022-08-05T13:53:05;2.40;;;2.20;;
12760;SDS011;6444;49.742;6.114;2022-08-05T13:55:31;3.83;;;1.98;;
12760;SDS011;6444;49.742;6.114;2022-08-05T13:57:58;2.83;;;2.17;;
12760;SDS011;6444;49.742;6.114;2022-08-05T14:00:25;2.12;;;1.90;;
12760;SDS011;6444;49.742;6.114;2022-08-05T14:02:52;2.72;;;1.90;;
12760;SDS011;6444;49.742;6.114;2022-08-05T14:05:18;3.60;;;1.92;;
12760;SDS011;6444;49.742;6.114;2022-08-05T14:07:46;4.00;;;2.30;;
12760;SDS011;6444;49.742;6.114;2022-08-05T14:10:14;3.12;;;2.25;;
12760;SDS011;6444;49.742;6.114;2022-08-05T14:12:39;2.08;;;1.83;;
12760;SDS011;6444;49.742;6.114;2022-08-05T14:15:06;2.53;;;2.28;;
12760;SDS011;6444;49.742;6.114;2022-08-05T14:17:32;3.45;;;2.40;;
12760;SDS011;6444;49.742;6.114;2022-08-05T14:20:00;3.53;;;2.30;;
12760;SDS011;6444;49.742;6.114;2022-08-05T14:22:26;2.42;;;1.77;;
12760;SDS011;6444;49.742;6.114;2022-08-05T14:24:53;3.50;;;2.10;;
12760;SDS011;6444;49.742;6.114;2022-08-05T14:27:20;3.35;;;2.03;;
12760;SDS011;6444;49.742;6.114;2022-08-05T14:29:46;3.00;;;2.42;;
12760;SDS011;6444;49.742;6.114;2022-08-05T14:32:13;2.75;;;2.33;;
12760;SDS011;6444;49.742;6.114;2022-08-05T14:34:39;2.62;;;2.10;;
12760;SDS011;6444;49.742;6.114;2022-08-05T14:37:06;3.10;;;2.30;;
12760;SDS011;6444;49.742;6.114;2022-08-05T14:39:33;3.75;;;2.12;;
12760;SDS011;6444;49.742;6.114;2022-08-05T14:41:59;4.07;;;2.33;;
12760;SDS011;6444;49.742;6.114;2022-08-05T14:44:26;2.78;;;2.12;;
12760;SDS011;6444;49.742;6.114;2022-08-05T14:46:53;3.37;;;2.37;;
12760;SDS011;6444;49.742;6.114;2022-08-05T14:49:20;3.17;;;2.25;;
12760;SDS011;6444;49.742;6.114;2022-08-05T14:51:47;4.75;;;2.30;;
12760;SDS011;6444;49.742;6.114;2022-08-05T14:54:13;3.75;;;2.10;;
12760;SDS011;6444;49.742;6.114;2022-08-05T14:56:40;4.03;;;2.33;;
12760;SDS011;6444;49.742;6.114;2022-08-05T14:59:07;3.25;;;2.20;;
12760;SDS011;6444;49.742;6.114;2022-08-05T15:01:34;4.85;;;2.50;;
12760;SDS011;6444;49.742;6.114;2022-08-05T15:04:01;3.33;;;2.40;;
12760;SDS011;6444;49.742;6.114;2022-08-05T15:06:28;3.28;;;2.17;;
12760;SDS011;6444;49.742;6.114;2022-08-05T15:08:55;2.40;;;2.20;;
12760;SDS011;6444;49.742;6.114;2022-08-05T15:11:21;4.28;;;2.25;;
12760;SDS011;6444;49.742;6.114;2022-08-05T15:13:48;2.67;;;2.00;;
12760;SDS011;6444;49.742;6.114;2022-08-05T15:16:14;3.85;;;2.62;;
12760;SDS011;6444;49.742;6.114;2022-08-05T15:18:41;4.60;;;2.40;;
12760;SDS011;6444;49.742;6.114;2022-08-05T15:21:08;2.95;;;2.47;;
12760;SDS011;6444;49.742;6.114;2022-08-05T15:23:34;4.57;;;2.40;;